createdAt,value
2022-10-23T00:00:44.254Z,8.60
2022-10-23T00:03:10.919Z,8.58
2022-10-23T00:05:40.637Z,8.56
2022-10-23T00:08:07.659Z,8.53
2022-10-23T00:10:34.498Z,8.52
2022-10-23T00:13:01.187Z,8.50
2022-10-23T00:15:27.910Z,8.49
2022-10-23T00:17:54.671Z,8.47
2022-10-23T00:20:21.944Z,8.47
2022-10-23T00:22:48.659Z,8.46
2022-10-23T00:25:16.471Z,8.44
2022-10-23T00:27:43.459Z,8.43
2022-10-23T00:30:10.973Z,8.43
2022-10-23T00:32:37.729Z,8.42
2022-10-23T00:35:04.567Z,8.41
2022-10-23T00:37:31.431Z,8.41
2022-10-23T00:39:58.038Z,8.40
2022-10-23T00:42:24.854Z,8.39
2022-10-23T00:44:51.454Z,8.38
2022-10-23T00:47:18.176Z,8.37
2022-10-23T00:49:44.926Z,8.36
2022-10-23T00:52:12.494Z,8.35
2022-10-23T00:54:41.157Z,8.34
2022-10-23T00:57:10.430Z,8.34
2022-10-23T00:59:37.314Z,8.33
2022-10-23T01:02:04.212Z,8.32
2022-10-23T01:04:31.029Z,8.31
2022-10-23T01:06:57.700Z,8.31
2022-10-23T01:09:30.522Z,8.31
2022-10-23T01:12:04.497Z,8.31
2022-10-23T01:15:06.947Z,8.32
2022-10-23T01:17:46.396Z,8.33
2022-10-23T01:20:22.760Z,8.32
2022-10-23T01:23:04.712Z,8.30
2022-10-23T01:25:32.120Z,8.34
2022-10-23T01:28:01.574Z,8.35
2022-10-23T01:30:28.325Z,8.37
2022-10-23T01:32:56.443Z,8.38
2022-10-23T01:35:34.297Z,8.39
2022-10-23T01:38:08.183Z,8.39
2022-10-23T01:40:37.241Z,8.39
2022-10-23T01:43:09.490Z,8.39
2022-10-23T01:45:38.161Z,8.39
2022-10-23T01:48:05.745Z,8.40
2022-10-23T01:50:33.535Z,8.39
2022-10-23T01:53:04.264Z,8.40
2022-10-23T01:55:32.480Z,8.39
2022-10-23T01:58:01.845Z,8.39
2022-10-23T02:00:36.500Z,8.39
2022-10-23T02:03:04.654Z,8.39
2022-10-23T02:05:33.003Z,8.39
2022-10-23T02:08:01.190Z,8.40
2022-10-23T02:10:34.270Z,8.39
2022-10-23T02:13:41.715Z,8.40
2022-10-23T02:16:27.321Z,8.40
2022-10-23T02:19:28.010Z,8.40
2022-10-23T02:22:23.260Z,8.39
2022-10-23T02:24:54.371Z,8.39
2022-10-23T02:27:29.888Z,8.39
2022-10-23T02:30:00.375Z,8.39
2022-10-23T02:32:27.304Z,8.39
2022-10-23T02:34:54.227Z,8.39
2022-10-23T02:39:49.248Z,8.39
2022-10-23T02:42:24.068Z,8.36
2022-10-23T02:45:13.468Z,8.38
2022-10-23T02:47:54.289Z,8.39
2022-10-23T02:50:38.152Z,8.40
2022-10-23T02:53:07.564Z,8.40
2022-10-23T02:55:53.246Z,8.40
2022-10-23T02:58:31.862Z,8.40
2022-10-23T03:01:03.609Z,8.41
2022-10-23T03:03:33.034Z,8.41
2022-10-23T03:05:59.794Z,8.42
2022-10-23T03:08:26.579Z,8.42
2022-10-23T03:10:53.211Z,8.44
2022-10-23T03:13:20.680Z,8.45
2022-10-23T03:15:47.353Z,8.45
2022-10-23T03:18:14.619Z,8.45
2022-10-23T03:20:45.294Z,8.44
2022-10-23T03:23:12.923Z,8.46
2022-10-23T03:25:39.694Z,8.46
2022-10-23T03:28:06.469Z,8.46
2022-10-23T03:30:34.327Z,8.47
2022-10-23T03:33:01.000Z,8.48
2022-10-23T03:35:27.728Z,8.50
2022-10-23T03:37:54.455Z,8.51
2022-10-23T03:40:23.318Z,8.53
2022-10-23T03:42:50.137Z,8.54
2022-10-23T03:45:18.491Z,8.55
2022-10-23T03:47:45.563Z,8.56
2022-10-23T03:50:14.047Z,8.58
2022-10-23T03:52:41.236Z,8.61
2022-10-23T03:55:08.598Z,8.61
2022-10-23T03:57:36.488Z,8.63
2022-10-23T04:00:04.020Z,8.64
2022-10-23T04:02:32.598Z,8.66
2022-10-23T04:04:59.243Z,8.67
2022-10-23T04:07:28.710Z,8.67
2022-10-23T04:09:55.440Z,8.68
2022-10-23T04:12:22.260Z,8.68
2022-10-23T04:14:51.199Z,8.69
2022-10-23T04:17:17.898Z,8.70
2022-10-23T04:19:44.739Z,8.70
2022-10-23T04:22:11.362Z,8.69
2022-10-23T04:24:39.078Z,8.69
2022-10-23T04:27:05.934Z,8.68
2022-10-23T04:29:33.169Z,8.69
2022-10-23T04:32:00.117Z,8.70
2022-10-23T04:34:26.833Z,8.71
2022-10-23T04:36:54.000Z,8.72
2022-10-23T04:39:20.786Z,8.73
2022-10-23T04:41:47.649Z,8.72
2022-10-23T04:44:14.461Z,8.75
2022-10-23T04:46:41.196Z,8.76
2022-10-23T04:49:09.067Z,8.77
2022-10-23T04:51:50.583Z,8.77
2022-10-23T04:54:43.688Z,8.78
2022-10-23T04:57:29.273Z,8.78
2022-10-23T05:00:01.314Z,8.79
2022-10-23T05:02:33.480Z,8.80
2022-10-23T05:05:00.203Z,8.82
2022-10-23T05:07:47.242Z,8.83
2022-10-23T05:10:43.396Z,8.84
2022-10-23T05:13:15.215Z,8.84
2022-10-23T05:18:36.656Z,8.86
2022-10-23T05:21:06.747Z,8.87
2022-10-23T05:23:33.493Z,8.88
2022-10-23T05:26:03.345Z,8.88
2022-10-23T05:28:31.319Z,8.90
2022-10-23T05:30:59.069Z,8.91
2022-10-23T05:33:27.579Z,8.93
2022-10-23T05:35:54.307Z,8.94
2022-10-23T05:38:21.950Z,8.95
2022-10-23T05:40:51.335Z,8.95
2022-10-23T05:43:19.784Z,8.97
2022-10-23T05:46:07.232Z,8.98
2022-10-23T05:48:52.528Z,9.00
2022-10-23T05:51:37.489Z,9.02
2022-10-23T05:54:29.574Z,9.04
2022-10-23T05:57:03.762Z,9.05
2022-10-23T05:59:43.639Z,9.07
2022-10-23T06:02:36.695Z,9.09
2022-10-23T06:05:07.859Z,9.08
2022-10-23T06:07:35.941Z,9.11
2022-10-23T06:10:05.264Z,9.11
2022-10-23T06:12:33.555Z,9.10
2022-10-23T06:15:00.464Z,9.11
2022-10-23T06:17:39.365Z,9.13
2022-10-23T06:20:06.444Z,9.13
2022-10-23T06:22:35.142Z,9.14
2022-10-23T06:25:12.386Z,9.16
2022-10-23T06:27:39.567Z,9.17
2022-10-23T06:30:11.250Z,9.18
2022-10-23T06:32:38.221Z,9.21
2022-10-23T06:35:10.673Z,9.24
2022-10-23T06:37:38.020Z,9.26
2022-10-23T06:40:09.206Z,9.29
2022-10-23T06:42:56.051Z,9.31
2022-10-23T06:45:34.009Z,9.34
2022-10-23T06:48:26.669Z,9.36
2022-10-23T06:51:07.361Z,9.38
2022-10-23T06:53:42.330Z,9.39
2022-10-23T06:56:30.376Z,9.41
2022-10-23T06:58:57.404Z,9.43
2022-10-23T07:01:24.201Z,9.44
2022-10-23T07:03:51.068Z,9.45
2022-10-23T07:06:20.909Z,9.46
2022-10-23T07:08:47.940Z,9.48
2022-10-23T07:11:34.645Z,9.51
2022-10-23T07:14:01.683Z,9.53
2022-10-23T07:16:47.492Z,9.54
2022-10-23T07:19:27.877Z,9.55
2022-10-23T07:21:56.530Z,9.57
2022-10-23T07:24:46.398Z,9.60
2022-10-23T07:27:26.121Z,9.62
2022-10-23T07:29:56.998Z,9.64
2022-10-23T07:32:24.736Z,9.65
2022-10-23T07:35:10.139Z,9.65
2022-10-23T07:37:39.814Z,9.64
2022-10-23T07:40:07.387Z,9.63
2022-10-23T07:42:39.026Z,9.65
2022-10-23T07:45:07.542Z,9.67
2022-10-23T07:47:35.623Z,9.67
2022-10-23T07:50:02.375Z,9.71
2022-10-23T07:52:32.129Z,9.72
2022-10-23T07:55:16.996Z,9.73
2022-10-23T07:57:49.456Z,9.75
2022-10-23T08:00:41.055Z,9.76
2022-10-23T08:03:12.820Z,9.79
2022-10-23T08:05:39.634Z,9.81
2022-10-23T08:08:06.364Z,9.83
2022-10-23T08:10:33.484Z,9.85
2022-10-23T08:13:00.680Z,9.87
2022-10-23T08:15:52.839Z,9.90
2022-10-23T08:18:38.115Z,9.90
2022-10-23T08:21:05.268Z,9.94
2022-10-23T08:23:32.383Z,9.96
2022-10-23T08:26:05.711Z,9.98
2022-10-23T08:28:32.638Z,9.99
2022-10-23T08:31:05.996Z,10.03
2022-10-23T08:33:32.776Z,10.08
2022-10-23T08:35:59.489Z,10.10
2022-10-23T08:38:30.161Z,10.13
2022-10-23T08:40:57.303Z,10.12
2022-10-23T08:43:55.026Z,10.17
2022-10-23T08:46:31.631Z,10.19
2022-10-23T08:49:29.627Z,10.20
2022-10-23T08:52:02.962Z,10.21
2022-10-23T08:54:42.951Z,10.23
2022-10-23T08:57:13.348Z,10.26
2022-10-23T08:59:47.880Z,10.28
2022-10-23T09:02:21.836Z,10.30
2022-10-23T09:04:49.593Z,10.33
2022-10-23T09:07:24.235Z,10.35
2022-10-23T09:10:25.188Z,10.39
2022-10-23T09:12:51.930Z,10.42
2022-10-23T09:15:30.351Z,10.45
2022-10-23T09:18:01.938Z,10.47
2022-10-23T09:20:34.657Z,10.50
2022-10-23T09:23:07.843Z,10.53
2022-10-23T09:25:37.138Z,10.55
2022-10-23T09:28:05.509Z,10.57
2022-10-23T09:30:37.759Z,10.59
2022-10-23T09:33:21.869Z,10.62
2022-10-23T09:35:52.654Z,10.67
2022-10-23T09:38:27.949Z,10.70
2022-10-23T09:40:54.896Z,10.72
2022-10-23T09:43:27.592Z,10.74
2022-10-23T09:46:05.192Z,10.75
2022-10-23T09:48:32.412Z,10.77
2022-10-23T09:51:04.109Z,10.80
2022-10-23T09:53:52.642Z,10.82
2022-10-23T09:56:27.161Z,10.85
2022-10-23T09:58:55.005Z,10.87
2022-10-23T10:01:25.982Z,10.89
2022-10-23T10:03:54.911Z,10.91
2022-10-23T10:06:27.144Z,10.94
2022-10-23T10:08:58.466Z,10.96
2022-10-23T10:11:41.169Z,10.98
2022-10-23T10:14:39.008Z,11.01
2022-10-23T10:17:09.936Z,11.03
2022-10-23T10:19:40.528Z,11.09
2022-10-23T10:24:42.010Z,11.17
2022-10-23T10:27:21.291Z,11.18
2022-10-23T10:29:55.446Z,11.19
2022-10-23T10:32:39.084Z,11.20
2022-10-23T10:35:11.779Z,11.20
2022-10-23T10:37:49.312Z,11.19
2022-10-23T10:40:33.055Z,11.17
2022-10-23T10:43:22.397Z,11.19
2022-10-23T10:45:50.298Z,11.18
2022-10-23T10:48:39.972Z,11.19
2022-10-23T10:51:32.995Z,11.20
2022-10-23T10:54:21.327Z,11.21
2022-10-23T10:56:48.527Z,11.21
2022-10-23T10:59:32.269Z,11.18
2022-10-23T11:02:28.130Z,11.19
2022-10-23T11:05:25.487Z,11.17
2022-10-23T11:07:55.393Z,11.15
2022-10-23T11:10:22.546Z,11.15
2022-10-23T11:12:49.348Z,11.15
2022-10-23T11:15:16.709Z,11.15
2022-10-23T11:17:49.006Z,11.16
2022-10-23T11:20:54.043Z,11.17
2022-10-23T11:23:34.935Z,11.18
2022-10-23T11:26:13.351Z,11.21
2022-10-23T11:29:30.496Z,11.24
2022-10-23T11:32:35.071Z,11.29
2022-10-23T11:35:07.537Z,11.33
2022-10-23T11:37:34.309Z,11.37
2022-10-23T11:40:07.097Z,11.39
2022-10-23T11:42:55.066Z,11.43
2022-10-23T11:45:37.886Z,11.47
2022-10-23T11:48:05.660Z,11.51
2022-10-23T11:50:44.640Z,11.53
2022-10-23T11:53:33.447Z,11.57
2022-10-23T11:56:13.428Z,11.62
2022-10-23T11:58:48.225Z,11.67
2022-10-23T12:01:45.600Z,11.72
2022-10-23T12:04:12.651Z,11.76
2022-10-23T12:06:57.063Z,11.78
2022-10-23T12:09:36.231Z,11.81
2022-10-23T12:12:07.403Z,11.83
2022-10-23T12:14:43.141Z,11.85
2022-10-23T12:17:25.275Z,11.86
2022-10-23T12:20:03.091Z,11.89
2022-10-23T12:22:38.561Z,11.91
2022-10-23T12:25:20.046Z,11.94
2022-10-23T12:28:03.988Z,11.98
2022-10-23T12:30:38.530Z,11.98
2022-10-23T12:33:14.524Z,11.99
2022-10-23T12:36:12.587Z,11.99
2022-10-23T12:38:45.961Z,11.99
2022-10-23T12:41:28.471Z,11.97
2022-10-23T12:44:02.831Z,11.98
2022-10-23T12:46:36.897Z,11.98
2022-10-23T12:49:14.495Z,11.99
2022-10-23T12:51:41.248Z,11.99
2022-10-23T12:54:18.076Z,11.99
2022-10-23T12:56:45.284Z,11.99
2022-10-23T12:59:20.676Z,11.98
2022-10-23T13:01:52.432Z,11.92
2022-10-23T13:04:29.552Z,11.95
2022-10-23T13:06:57.692Z,11.92
2022-10-23T13:09:35.248Z,11.89
2022-10-23T13:12:25.147Z,11.86
2022-10-23T13:15:07.174Z,11.85
2022-10-23T13:17:39.098Z,11.81
2022-10-23T13:20:18.210Z,11.78
2022-10-23T13:22:46.432Z,11.75
2022-10-23T13:25:24.143Z,11.73
2022-10-23T13:27:51.127Z,11.70
2022-10-23T13:30:38.472Z,11.68
2022-10-23T13:33:20.313Z,11.66
2022-10-23T13:36:00.920Z,11.63
2022-10-23T13:38:29.610Z,11.58
2022-10-23T13:40:58.050Z,11.52
2022-10-23T13:43:25.476Z,11.51
2022-10-23T13:45:52.354Z,11.49
2022-10-23T13:48:19.072Z,11.47
2022-10-23T13:50:45.776Z,11.44
2022-10-23T13:53:12.980Z,11.42
2022-10-23T13:55:40.839Z,11.39
2022-10-23T13:58:09.103Z,11.37
2022-10-23T14:00:36.345Z,11.33
2022-10-23T14:03:03.356Z,11.29
2022-10-23T14:05:30.330Z,11.26
2022-10-23T14:08:00.306Z,11.23
2022-10-23T14:10:27.876Z,11.21
2022-10-23T14:12:55.096Z,11.17
2022-10-23T14:15:22.013Z,11.14
2022-10-23T14:17:48.939Z,11.12
2022-10-23T14:20:18.970Z,11.10
2022-10-23T14:22:46.560Z,11.08
2022-10-23T14:25:13.866Z,11.05
2022-10-23T14:27:40.734Z,11.02
2022-10-23T14:30:09.618Z,10.99
2022-10-23T14:32:36.503Z,10.95
2022-10-23T14:35:04.072Z,10.91
2022-10-23T14:37:31.558Z,10.89
2022-10-23T14:39:58.465Z,10.86
2022-10-23T14:42:25.491Z,10.83
2022-10-23T14:44:52.359Z,10.82
2022-10-23T14:47:19.504Z,10.80
2022-10-23T14:49:48.009Z,10.79
2022-10-23T14:52:14.912Z,10.77
2022-10-23T14:54:41.762Z,10.74
2022-10-23T14:57:08.543Z,10.74
2022-10-23T14:59:35.311Z,10.74
2022-10-23T15:02:02.084Z,10.73
2022-10-23T15:04:28.778Z,10.72
2022-10-23T15:06:55.600Z,10.71
2022-10-23T15:09:22.480Z,10.73
2022-10-23T15:11:49.354Z,10.72
2022-10-23T15:14:16.186Z,10.70
2022-10-23T15:16:42.952Z,10.70
2022-10-23T15:19:13.547Z,10.68
2022-10-23T15:21:44.432Z,10.67
2022-10-23T15:24:11.243Z,10.66
2022-10-23T15:26:38.636Z,10.66
2022-10-23T15:29:05.610Z,10.64
2022-10-23T15:31:37.654Z,10.62
2022-10-23T15:34:05.564Z,10.62
2022-10-23T15:36:32.411Z,10.62
2022-10-23T15:38:59.250Z,10.63
2022-10-23T15:41:36.468Z,10.63
2022-10-23T15:44:03.469Z,10.64
2022-10-23T15:46:30.368Z,10.65
2022-10-23T15:48:57.294Z,10.66
2022-10-23T15:51:25.046Z,10.66
2022-10-23T15:53:51.952Z,10.66
2022-10-23T15:56:18.737Z,10.67
2022-10-23T15:58:45.892Z,10.69
2022-10-23T16:01:12.720Z,10.70
2022-10-23T16:03:39.676Z,10.68
2022-10-23T16:06:08.037Z,10.70
2022-10-23T16:08:35.074Z,10.71
2022-10-23T16:11:02.264Z,10.72
2022-10-23T16:13:29.096Z,10.73
2022-10-23T16:15:56.115Z,10.75
2022-10-23T16:18:23.206Z,10.76
2022-10-23T16:20:55.247Z,10.77
2022-10-23T16:23:22.392Z,10.78
2022-10-23T16:25:49.291Z,10.79
2022-10-23T16:28:16.097Z,10.79
2022-10-23T16:30:43.292Z,10.79
2022-10-23T16:33:10.252Z,10.80
2022-10-23T16:35:37.465Z,10.79
2022-10-23T16:38:08.744Z,10.79
2022-10-23T16:40:35.587Z,10.80
2022-10-23T16:43:21.195Z,10.79
2022-10-23T16:46:04.334Z,10.78
2022-10-23T16:48:31.254Z,10.78
2022-10-23T16:50:58.064Z,10.80
2022-10-23T16:53:29.051Z,10.80
2022-10-23T16:55:56.920Z,10.78
2022-10-23T16:58:27.562Z,10.78
2022-10-23T17:01:01.824Z,10.79
2022-10-23T17:03:29.772Z,10.79
2022-10-23T17:06:01.665Z,10.79
2022-10-23T17:08:29.023Z,10.79
2022-10-23T17:11:05.906Z,10.79
2022-10-23T17:13:33.198Z,10.79
2022-10-23T17:16:09.917Z,10.80
2022-10-23T17:18:39.900Z,10.80
2022-10-23T17:21:10.839Z,10.81
2022-10-23T17:23:37.652Z,10.83
2022-10-23T17:26:06.374Z,10.83
2022-10-23T17:28:37.948Z,10.84
2022-10-23T17:31:04.818Z,10.85
2022-10-23T17:33:31.631Z,10.86
2022-10-23T17:36:01.383Z,10.86
2022-10-23T17:38:28.124Z,10.87
2022-10-23T17:40:54.874Z,10.87
2022-10-23T17:43:23.286Z,10.87
2022-10-23T17:45:50.143Z,10.86
2022-10-23T17:48:17.256Z,10.87
2022-10-23T17:50:44.141Z,10.87
2022-10-23T17:53:10.912Z,10.88
2022-10-23T17:55:39.008Z,10.89
2022-10-23T17:58:07.552Z,10.89
2022-10-23T18:00:37.909Z,10.90
2022-10-23T18:03:04.819Z,10.91
2022-10-23T18:05:32.932Z,10.93
2022-10-23T18:08:00.413Z,10.94
2022-10-23T18:10:27.445Z,10.94
2022-10-23T18:12:55.437Z,10.95
2022-10-23T18:15:22.236Z,10.95
2022-10-23T18:17:49.008Z,10.96
2022-10-23T18:20:16.311Z,10.96
2022-10-23T18:22:43.448Z,10.94
2022-10-23T18:25:11.787Z,10.95
2022-10-23T18:27:41.511Z,10.96
2022-10-23T18:30:09.005Z,10.97
2022-10-23T18:32:35.739Z,10.98
2022-10-23T18:35:02.809Z,10.99
2022-10-23T18:37:31.748Z,10.99
2022-10-23T18:40:00.037Z,10.98
2022-10-23T18:42:26.932Z,10.99
2022-10-23T18:44:53.995Z,10.98
2022-10-23T18:47:20.745Z,10.97
2022-10-23T18:49:47.534Z,10.94
2022-10-23T18:52:14.438Z,10.92
2022-10-23T18:54:41.361Z,10.90
2022-10-23T18:57:08.306Z,10.89
2022-10-23T18:59:36.820Z,10.86
2022-10-23T19:02:04.205Z,10.85
2022-10-23T19:04:32.893Z,10.83
2022-10-23T19:07:02.995Z,10.82
2022-10-23T19:09:30.989Z,10.81
2022-10-23T19:11:59.096Z,10.80
2022-10-23T19:14:28.703Z,10.79
2022-10-23T19:16:59.746Z,10.78
2022-10-23T19:19:43.829Z,10.78
2022-10-23T19:22:10.760Z,10.79
2022-10-23T19:24:58.763Z,10.79
2022-10-23T19:27:25.748Z,10.80
2022-10-23T19:29:52.528Z,10.79
2022-10-23T19:32:19.301Z,10.78
2022-10-23T19:34:46.361Z,10.78
2022-10-23T19:39:45.595Z,10.79
2022-10-23T19:42:12.350Z,10.78
2022-10-23T19:44:39.459Z,10.78
2022-10-23T19:47:06.227Z,10.78
2022-10-23T19:49:33.008Z,10.78
2022-10-23T19:51:59.876Z,10.78
2022-10-23T19:54:26.703Z,10.78
2022-10-23T19:56:53.540Z,10.79
2022-10-23T19:59:20.598Z,10.80
2022-10-23T20:01:49.007Z,10.82
2022-10-23T20:04:17.887Z,10.84
2022-10-23T20:06:44.886Z,10.84
2022-10-23T20:09:11.737Z,10.84
2022-10-23T20:11:39.004Z,10.85
2022-10-23T20:14:06.246Z,10.86
2022-10-23T20:16:34.989Z,10.86
2022-10-23T20:19:03.296Z,10.86
2022-10-23T20:21:30.405Z,10.86
2022-10-23T20:23:57.734Z,10.87
2022-10-23T20:26:24.590Z,10.87
2022-10-23T20:28:55.173Z,10.85
2022-10-23T20:31:23.348Z,10.88
2022-10-23T20:33:50.290Z,10.88
2022-10-23T20:36:40.151Z,10.89
2022-10-23T20:39:14.085Z,10.90
2022-10-23T20:41:41.779Z,10.89
2022-10-23T20:44:10.789Z,10.93
2022-10-23T20:46:37.677Z,10.94
2022-10-23T20:49:04.494Z,10.94
2022-10-23T20:51:31.191Z,10.94
2022-10-23T20:53:57.904Z,10.95
2022-10-23T20:56:29.962Z,10.96
2022-10-23T20:59:01.237Z,10.96
2022-10-23T21:01:28.332Z,10.97
2022-10-23T21:03:58.597Z,10.96
2022-10-23T21:06:26.507Z,10.97
2022-10-23T21:08:57.510Z,10.99
2022-10-23T21:11:24.467Z,10.99
2022-10-23T21:13:51.682Z,11.00
2022-10-23T21:16:23.625Z,11.01
2022-10-23T21:18:52.984Z,11.01
2022-10-23T21:21:20.070Z,11.01
2022-10-23T21:23:47.731Z,11.01
2022-10-23T21:26:14.942Z,11.01
2022-10-23T21:28:50.873Z,10.99
2022-10-23T21:31:27.786Z,11.01
2022-10-23T21:33:54.560Z,11.01
2022-10-23T21:36:21.861Z,11.02
2022-10-23T21:38:53.385Z,11.02
2022-10-23T21:41:25.148Z,11.03
2022-10-23T21:43:56.188Z,11.02
2022-10-23T21:46:23.255Z,11.00
2022-10-23T21:48:50.078Z,11.01
2022-10-23T21:51:29.390Z,11.00
2022-10-23T21:53:56.292Z,11.01
2022-10-23T21:56:24.454Z,11.01
2022-10-23T21:58:51.859Z,11.01
2022-10-23T22:01:18.795Z,11.02
2022-10-23T22:03:45.624Z,11.02
2022-10-23T22:06:15.813Z,11.01
2022-10-23T22:08:42.676Z,11.00
2022-10-23T22:11:11.380Z,10.99
2022-10-23T22:13:38.075Z,11.00
2022-10-23T22:16:04.782Z,11.00
2022-10-23T22:18:31.517Z,11.00
2022-10-23T22:21:01.942Z,10.99
2022-10-23T22:23:28.961Z,10.98
2022-10-23T22:25:55.893Z,10.97
2022-10-23T22:28:23.011Z,10.98
2022-10-23T22:30:49.742Z,10.98
2022-10-23T22:33:16.386Z,10.98
2022-10-23T22:35:43.083Z,10.98
2022-10-23T22:38:09.751Z,10.97
2022-10-23T22:41:36.482Z,11.00
2022-10-23T22:44:03.223Z,10.98
2022-10-23T22:46:30.342Z,10.99
2022-10-23T22:48:57.503Z,10.98
2022-10-23T22:51:26.408Z,10.98
2022-10-23T22:53:53.192Z,10.98
2022-10-23T22:56:21.050Z,10.98
2022-10-23T22:58:47.982Z,10.98
2022-10-23T23:01:23.739Z,10.97
2022-10-23T23:03:50.608Z,10.96
2022-10-23T23:06:17.620Z,10.97
2022-10-23T23:08:44.584Z,10.97
2022-10-23T23:11:12.780Z,10.98
2022-10-23T23:13:39.957Z,10.99
2022-10-23T23:16:06.854Z,11.01
2022-10-23T23:18:33.773Z,10.99
2022-10-23T23:21:04.359Z,11.02
2022-10-23T23:23:31.102Z,11.03
2022-10-23T23:25:57.864Z,11.04
2022-10-23T23:28:24.621Z,11.05
2022-10-23T23:30:57.798Z,11.04
2022-10-23T23:33:24.536Z,11.04
2022-10-23T23:35:51.164Z,11.04
2022-10-23T23:38:17.905Z,11.04
2022-10-23T23:40:49.751Z,11.05
2022-10-23T23:43:16.491Z,11.05
2022-10-23T23:45:43.142Z,11.05
2022-10-23T23:48:09.896Z,11.04
2022-10-23T23:50:36.537Z,11.06
2022-10-23T23:53:03.373Z,11.07
2022-10-23T23:55:30.243Z,11.08
2022-10-23T23:57:57.011Z,11.09
